Time;durP1;ratioP1;P1;durP2;ratioP2;P2;SDS_P1;SDS_P2;PMS_P1;PMS_P2;Temp;Humidity;BMP_temperature;BMP_pressure;BME280_temperature;BME280_humidity;BME280_pressure;Samples;Min_cycle;Max_cycle;Signal;HPM_P1;HPM_P2
2023/05/19 00:00:36;;;;;;;8.73;5.87;;;9.30;91.50;;;;;;5061431;28;21004;-60
2023/05/19 00:03:03;;;;;;;7.10;6.27;;;9.30;91.40;;;;;;5065657;28;20475;-60
2023/05/19 00:05:30;;;;;;;7.37;5.10;;;9.20;91.30;;;;;;5059382;28;20575;-60
2023/05/19 00:07:59;;;;;;;9.63;6.50;;;9.10;91.30;;;;;;5053263;28;20482;-60
2023/05/19 00:10:30;;;;;;;8.73;5.70;;;9.10;91.30;;;;;;5081556;28;20490;-60
2023/05/19 00:12:58;;;;;;;11.03;6.60;;;9.10;91.20;;;;;;5073805;27;20484;-60
2023/05/19 00:15:25;;;;;;;13.60;5.83;;;9.10;91.20;;;;;;5097156;27;20468;-60
2023/05/19 00:17:54;;;;;;;5.60;5.10;;;;;;;;;;5080343;27;20474;-60
2023/05/19 00:20:21;;;;;;;11.53;6.00;;;9.10;91.30;;;;;;5070698;28;20978;-60
2023/05/19 00:22:49;;;;;;;10.40;6.00;;;9.00;91.30;;;;;;5062246;27;20539;-60
2023/05/19 00:25:16;;;;;;;14.10;6.47;;;8.70;91.50;;;;;;5071587;27;20514;-60
2023/05/19 00:27:44;;;;;;;6.53;5.60;;;8.80;91.70;;;;;;5074059;27;21172;-60
2023/05/19 00:30:12;;;;;;;5.80;5.00;;;8.70;91.70;;;;;;5071226;28;20466;-60
2023/05/19 00:32:39;;;;;;;15.57;6.53;;;8.70;91.50;;;;;;5089336;27;20477;-60
2023/05/19 00:35:07;;;;;;;14.00;6.83;;;8.70;91.60;;;;;;5071520;27;21017;-60
2023/05/19 00:37:34;;;;;;;14.23;6.60;;;8.60;91.50;;;;;;5081734;27;20509;-60
2023/05/19 00:40:00;;;;;;;12.33;6.90;;;8.70;91.50;;;;;;5093795;27;20821;-60
2023/05/19 00:42:27;;;;;;;11.33;5.73;;;8.70;91.50;;;;;;5067256;27;20999;-60
2023/05/19 00:44:56;;;;;;;9.77;6.33;;;8.70;91.40;;;;;;5086691;27;21213;-60
2023/05/19 00:47:22;;;;;;;12.07;6.20;;;8.60;91.50;;;;;;5074011;27;20496;-60
2023/05/19 00:49:49;;;;;;;6.83;5.40;;;8.60;91.50;;;;;;5089927;27;20678;-60
2023/05/19 00:52:16;;;;;;;14.63;6.50;;;;;;;;;;5068966;28;20482;-60
2023/05/19 00:54:45;;;;;;;6.13;5.17;;;8.60;91.30;;;;;;5075893;28;20475;-60
2023/05/19 00:57:12;;;;;;;6.83;6.13;;;8.60;91.30;;;;;;5071507;27;20491;-60
2023/05/19 00:59:39;;;;;;;9.50;6.63;;;8.60;91.20;;;;;;5090107;27;20486;-60
2023/05/19 01:02:08;;;;;;;7.30;5.90;;;8.60;91.30;;;;;;5068795;27;20472;-60
2023/05/19 01:04:38;;;;;;;7.37;5.47;;;8.50;91.40;;;;;;5084577;27;20479;-60
2023/05/19 01:07:05;;;;;;;8.27;6.20;;;8.50;91.30;;;;;;5098700;27;20466;-60
2023/05/19 01:09:32;;;;;;;8.60;5.73;;;8.50;91.50;;;;;;5096637;27;20484;-60
2023/05/19 01:11:59;;;;;;;6.90;6.17;;;8.40;91.30;;;;;;5075933;28;20884;-60
2023/05/19 01:14:27;;;;;;;8.57;4.90;;;;;;;;;;5083789;27;20480;-60
2023/05/19 01:17:04;;;;;;;7.90;5.60;;;8.40;91.60;;;;;;5087230;27;20493;-60
2023/05/19 01:19:55;;;;;;;7.50;5.30;;;8.30;91.90;;;;;;5089167;27;20476;-60
2023/05/19 01:22:41;;;;;;;6.03;5.53;;;8.30;91.80;;;;;;5074409;27;20558;-60
2023/05/19 01:25:22;;;;;;;6.77;5.77;;;8.10;91.60;;;;;;5074632;27;20490;-60
2023/05/19 01:28:25;;;;;;;11.90;6.47;;;8.00;91.70;;;;;;5085497;27;20471;-60
2023/05/19 01:30:55;;;;;;;12.63;7.30;;;8.00;92.00;;;;;;5034337;28;20509;-60
2023/05/19 01:33:24;;;;;;;7.40;6.03;;;8.10;92.20;;;;;;5079860;28;21053;-60
2023/05/19 01:35:52;;;;;;;7.53;6.60;;;7.90;92.50;;;;;;5076294;27;20470;-60
2023/05/19 01:38:20;;;;;;;10.93;4.50;;;7.80;92.40;;;;;;5077363;28;20480;-60
2023/05/19 01:40:48;;;;;;;5.80;5.23;;;7.90;92.60;;;;;;5072898;28;20466;-60
2023/05/19 01:43:21;;;;;;;5.67;4.83;;;7.80;92.70;;;;;;5070574;27;20470;-59
2023/05/19 01:45:49;;;;;;;8.20;6.87;;;7.70;92.80;;;;;;5077448;28;20464;-60
2023/05/19 01:48:18;;;;;;;12.60;6.13;;;7.70;92.90;;;;;;5079500;27;20543;-60
2023/05/19 01:50:49;;;;;;;8.80;7.00;;;7.80;92.80;;;;;;5062924;28;20577;-60
2023/05/19 01:53:16;;;;;;;7.87;6.77;;;7.80;92.80;;;;;;5079039;27;20902;-60
2023/05/19 01:55:46;;;;;;;6.43;5.70;;;7.90;93.20;;;;;;5095772;27;20470;-60
2023/05/19 01:58:20;;;;;;;8.73;6.10;;;7.90;92.70;;;;;;5076702;27;20479;-60
2023/05/19 02:00:53;;;;;;;8.03;6.47;;;7.90;92.30;;;;;;5099197;27;20496;-60
2023/05/19 02:03:52;;;;;;;6.77;6.07;;;7.90;92.40;;;;;;5069362;27;20600;-60
2023/05/19 02:06:29;;;;;;;7.13;6.40;;;7.90;92.50;;;;;;5092060;27;20902;-60
2023/05/19 02:09:02;;;;;;;6.87;6.37;;;7.90;92.20;;;;;;5094195;27;20564;-60
2023/05/19 02:11:36;;;;;;;7.70;6.13;;;7.90;92.50;;;;;;5066448;28;20523;-60
2023/05/19 02:14:09;;;;;;;7.60;6.83;;;7.80;92.00;;;;;;5096597;27;20930;-60
2023/05/19 02:16:37;;;;;;;9.03;5.83;;;7.80;92.00;;;;;;5061105;28;20482;-60
2023/05/19 02:19:06;;;;;;;7.23;6.60;;;7.80;92.10;;;;;;5080878;27;20465;-60
2023/05/19 02:21:32;;;;;;;6.40;5.80;;;7.80;92.30;;;;;;5091698;27;20848;-60
2023/05/19 02:23:59;;;;;;;8.90;6.53;;;7.80;92.40;;;;;;5077938;27;20994;-60
2023/05/19 02:26:26;;;;;;;6.23;5.63;;;7.80;92.70;;;;;;5059068;27;21083;-60
2023/05/19 02:28:53;;;;;;;6.57;5.87;;;7.80;92.50;;;;;;5095932;27;20476;-60
2023/05/19 02:31:20;;;;;;;7.67;5.27;;;7.80;92.60;;;;;;5069450;27;20472;-59
2023/05/19 02:33:47;;;;;;;7.10;6.50;;;7.80;92.90;;;;;;5070143;27;20475;-60
2023/05/19 02:36:15;;;;;;;7.90;6.10;;;7.70;92.60;;;;;;5088204;27;21042;-60
2023/05/19 02:38:42;;;;;;;13.60;6.20;;;7.70;92.80;;;;;;5084295;27;20482;-60
2023/05/19 02:41:09;;;;;;;7.70;7.00;;;7.70;92.70;;;;;;5069142;27;20485;-60
2023/05/19 02:43:36;;;;;;;8.43;5.60;;;7.70;92.70;;;;;;5075718;27;20794;-60
2023/05/19 02:46:03;;;;;;;8.70;6.27;;;7.70;92.40;;;;;;5058903;27;20482;-60
2023/05/19 02:48:30;;;;;;;9.03;6.23;;;7.60;92.70;;;;;;5102214;27;20736;-60
2023/05/19 02:50:56;;;;;;;7.70;6.90;;;7.60;92.60;;;;;;5066490;28;20632;-60
2023/05/19 02:53:25;;;;;;;6.23;5.63;;;7.60;92.60;;;;;;5086861;27;20841;-60
2023/05/19 02:55:51;;;;;;;6.67;6.03;;;7.60;92.60;;;;;;5072115;27;20481;-60
2023/05/19 02:58:19;;;;;;;9.80;5.87;;;7.60;92.60;;;;;;5096426;27;20489;-60
2023/05/19 03:00:46;;;;;;;6.40;5.10;;;9.80;93.70;;;;;;5079036;27;20481;-60
2023/05/19 03:03:13;;;;;;;9.70;5.30;;;7.60;92.60;;;;;;5057135;28;20486;-60
2023/05/19 03:05:40;;;;;;;8.77;5.90;;;7.60;92.60;;;;;;5069612;28;20538;-60
2023/05/19 03:08:08;;;;;;;6.80;6.17;;;7.60;92.60;;;;;;5086025;27;20988;-60
2023/05/19 03:10:36;;;;;;;7.60;6.90;;;7.60;92.90;;;;;;5063671;27;20822;-60
2023/05/19 03:13:03;;;;;;;7.83;7.00;;;7.60;92.70;;;;;;5083483;27;20882;-60
2023/05/19 03:15:30;;;;;;;6.57;6.00;;;7.60;92.90;;;;;;5075443;27;20475;-60
2023/05/19 03:17:56;;;;;;;7.87;7.17;;;7.50;92.40;;;;;;5067851;28;21007;-60
2023/05/19 03:20:24;;;;;;;6.03;5.53;;;7.50;92.70;;;;;;5071422;27;20477;-60
2023/05/19 03:22:50;;;;;;;8.90;5.77;;;7.50;92.30;;;;;;5068608;28;20979;-60
2023/05/19 03:25:18;;;;;;;7.10;6.50;;;7.30;92.20;;;;;;5076116;27;20479;-60
2023/05/19 03:27:46;;;;;;;7.00;6.27;;;7.50;92.40;;;;;;5099071;27;20477;-60
2023/05/19 03:30:14;;;;;;;8.23;5.47;;;7.50;92.40;;;;;;5065663;28;21400;-60
2023/05/19 03:32:41;;;;;;;5.57;5.03;;;7.40;92.50;;;;;;5078118;27;20487;-60
2023/05/19 03:35:08;;;;;;;8.80;6.67;;;7.50;92.70;;;;;;5066991;27;20505;-60
2023/05/19 03:37:35;;;;;;;5.90;5.40;;;7.40;92.70;;;;;;5072267;27;20576;-60
2023/05/19 03:40:03;;;;;;;7.47;6.67;;;7.40;92.50;;;;;;5094241;27;21264;-60
2023/05/19 03:42:31;;;;;;;7.27;6.27;;;7.40;92.80;;;;;;5098407;27;20514;-60
2023/05/19 03:44:59;;;;;;;7.53;5.87;;;7.30;93.20;;;;;;5069022;28;20474;-60
2023/05/19 03:47:25;;;;;;;6.27;5.67;;;7.30;92.90;;;;;;5074748;27;20773;-60
2023/05/19 03:49:52;;;;;;;6.37;5.80;;;6.60;92.70;;;;;;5084070;27;20475;-60
2023/05/19 03:52:19;;;;;;;10.40;7.07;;;7.20;93.90;;;;;;5075563;28;20485;-60
2023/05/19 03:54:46;;;;;;;6.60;5.47;;;7.20;93.80;;;;;;5057520;28;20779;-60
2023/05/19 03:57:14;;;;;;;12.17;6.50;;;7.20;93.80;;;;;;5063632;27;20500;-60
2023/05/19 03:59:42;;;;;;;8.80;6.20;;;7.20;94.10;;;;;;5081639;27;20478;-60
2023/05/19 04:02:10;;;;;;;6.43;5.80;;;7.10;93.60;;;;;;5067798;27;20555;-60
2023/05/19 04:04:37;;;;;;;7.30;6.27;;;7.30;93.70;;;;;;5074442;27;20479;-60
2023/05/19 04:07:04;;;;;;;7.53;6.83;;;7.30;93.60;;;;;;5071471;28;20780;-60
2023/05/19 04:09:34;;;;;;;12.93;6.97;;;7.40;93.60;;;;;;5074153;28;20487;-60
2023/05/19 04:12:01;;;;;;;10.67;7.63;;;7.40;93.60;;;;;;5081688;27;20897;-60
2023/05/19 04:14:28;;;;;;;9.50;6.03;;;7.50;93.90;;;;;;5069116;27;20574;-60
2023/05/19 04:16:55;;;;;;;7.03;6.43;;;7.50;94.10;;;;;;5079319;27;20993;-60
2023/05/19 04:19:23;;;;;;;7.30;6.60;;;7.50;94.40;;;;;;5073305;28;20485;-60
2023/05/19 04:21:51;;;;;;;10.17;6.67;;;7.50;94.20;;;;;;5074582;28;20478;-60
2023/05/19 04:24:18;;;;;;;8.10;6.83;;;7.60;94.20;;;;;;5085025;27;20486;-60
2023/05/19 04:26:46;;;;;;;11.97;6.23;;;7.60;94.40;;;;;;5088083;28;21004;-60
2023/05/19 04:29:16;;;;;;;7.50;6.63;;;7.70;94.80;;;;;;5075109;28;20490;-60
2023/05/19 04:31:43;;;;;;;6.80;6.20;;;7.70;94.60;;;;;;5085079;28;20461;-60
2023/05/19 04:34:10;;;;;;;12.70;7.47;;;7.80;94.70;;;;;;5082932;27;21012;-60
2023/05/19 04:36:39;;;;;;;11.43;6.90;;;7.80;94.90;;;;;;5066967;27;20554;-60
2023/05/19 04:39:08;;;;;;;12.10;7.97;;;7.90;95.30;;;;;;5060557;27;20534;-60
2023/05/19 04:41:39;;;;;;;13.73;7.90;;;8.00;95.50;;;;;;5093479;27;20492;-60
2023/05/19 04:44:06;;;;;;;10.37;7.20;;;8.00;95.60;;;;;;5068718;27;20487;-60
2023/05/19 04:46:33;;;;;;;10.90;7.80;;;8.10;96.00;;;;;;5074014;28;21198;-60
2023/05/19 04:49:01;;;;;;;10.63;8.90;;;8.20;96.10;;;;;;5075452;27;20477;-60
2023/05/19 04:51:30;;;;;;;13.87;8.03;;;8.30;96.30;;;;;;5105347;27;20490;-60
2023/05/19 04:53:58;;;;;;;11.93;7.57;;;8.20;96.50;;;;;;5064709;27;20976;-60
2023/05/19 04:56:26;;;;;;;11.80;7.70;;;8.40;96.40;;;;;;5076208;27;20479;-60
2023/05/19 04:58:53;;;;;;;10.33;7.53;;;8.50;96.80;;;;;;5105736;27;20469;-60
2023/05/19 05:01:24;;;;;;;11.03;7.37;;;8.60;96.30;;;;;;5083299;28;20480;-59
2023/05/19 05:03:53;;;;;;;12.33;7.97;;;8.70;96.50;;;;;;5059030;28;20892;-60
2023/05/19 05:06:20;;;;;;;7.60;6.30;;;8.70;96.80;;;;;;5057590;28;20474;-59
2023/05/19 05:08:47;;;;;;;12.33;6.40;;;8.90;96.70;;;;;;5066347;28;20527;-60
2023/05/19 05:11:16;;;;;;;8.80;7.37;;;8.90;96.60;;;;;;5069072;28;20483;-60
2023/05/19 05:13:44;;;;;;;8.30;6.20;;;8.90;97.20;;;;;;5065117;27;20562;-60
2023/05/19 05:16:12;;;;;;;8.93;6.70;;;9.10;96.60;;;;;;5068905;28;20973;-59
2023/05/19 05:18:39;;;;;;;13.80;7.50;;;9.10;96.70;;;;;;5095737;27;20516;-60
2023/05/19 05:21:07;;;;;;;17.87;8.67;;;9.10;96.50;;;;;;5069694;28;20489;-59
2023/05/19 05:23:35;;;;;;;9.10;7.20;;;9.40;96.60;;;;;;5079833;28;20563;-60
2023/05/19 05:26:09;;;;;;;10.90;7.53;;;9.50;96.50;;;;;;5078008;28;20609;-59
2023/05/19 05:28:37;;;;;;;12.70;7.77;;;9.60;96.80;;;;;;5051542;28;20494;-60
2023/05/19 05:31:04;;;;;;;10.50;6.67;;;9.80;96.80;;;;;;5067315;28;20483;-60
2023/05/19 05:33:32;;;;;;;9.30;6.50;;;10.00;96.20;;;;;;5070678;28;21008;-60
2023/05/19 05:35:58;;;;;;;9.00;5.80;;;10.10;96.20;;;;;;5057986;28;20492;-60
2023/05/19 05:38:25;;;;;;;9.50;6.00;;;10.20;95.60;;;;;;5079625;28;20665;-60
2023/05/19 05:40:52;;;;;;;8.57;6.20;;;10.30;95.70;;;;;;5090254;27;20481;-59
2023/05/19 05:43:19;;;;;;;9.43;5.50;;;10.40;95.60;;;;;;5075641;27;21038;-60
2023/05/19 05:45:47;;;;;;;6.30;5.70;;;10.60;95.70;;;;;;5066588;28;20482;-60
2023/05/19 05:48:15;;;;;;;7.53;5.53;;;10.60;95.30;;;;;;5074119;28;21022;-60
2023/05/19 05:50:43;;;;;;;8.33;5.40;;;10.70;95.20;;;;;;5100194;27;20573;-60
2023/05/19 05:53:15;;;;;;;7.90;5.30;;;10.90;94.80;;;;;;5081242;27;20474;-60
2023/05/19 05:55:43;;;;;;;6.87;5.80;;;10.90;95.00;;;;;;5062224;28;20489;-60
2023/05/19 05:58:10;;;;;;;6.97;5.50;;;11.00;95.10;;;;;;5083450;27;20653;-60
2023/05/19 06:00:37;;;;;;;6.00;5.33;;;11.10;95.10;;;;;;5079119;28;20871;-60
2023/05/19 06:03:05;;;;;;;9.53;5.70;;;11.20;95.00;;;;;;5083157;28;20554;-60
2023/05/19 06:05:32;;;;;;;8.63;5.00;;;11.40;94.20;;;;;;5084797;27;20462;-60
2023/05/19 06:07:59;;;;;;;10.33;6.60;;;11.50;94.00;;;;;;5065876;28;20553;-60
2023/05/19 06:10:26;;;;;;;8.83;4.63;;;11.60;94.00;;;;;;5070723;28;20486;-59
2023/05/19 06:12:53;;;;;;;10.53;4.97;;;11.70;94.10;;;;;;5093484;27;20495;-60
2023/05/19 06:15:19;;;;;;;9.90;4.40;;;11.90;93.80;;;;;;5094196;28;20474;-60
2023/05/19 06:17:46;;;;;;;4.87;4.40;;;12.10;93.90;;;;;;5077619;28;20473;-60
2023/05/19 06:20:15;;;;;;;6.20;4.20;;;12.20;93.60;;;;;;5071536;27;20481;-60
2023/05/19 06:22:42;;;;;;;10.63;4.10;;;12.20;94.00;;;;;;5095146;27;20502;-60
2023/05/19 06:25:09;;;;;;;7.60;4.40;;;12.40;94.20;;;;;;5099001;27;20488;-60
2023/05/19 06:27:36;;;;;;;3.97;3.50;;;12.60;93.50;;;;;;5075742;28;20481;-60
2023/05/19 06:30:03;;;;;;;4.90;4.37;;;12.70;93.30;;;;;;5092389;27;20871;-60
2023/05/19 06:32:30;;;;;;;5.90;4.50;;;12.80;92.70;;;;;;5086226;27;20494;-60
2023/05/19 06:34:56;;;;;;;5.83;4.40;;;12.90;92.60;;;;;;5093780;27;20801;-60
2023/05/19 06:37:25;;;;;;;6.37;3.70;;;13.00;92.80;;;;;;5076428;28;20493;-60
2023/05/19 06:39:53;;;;;;;7.57;4.27;;;13.10;92.00;;;;;;5060637;28;20479;-60
2023/05/19 06:42:21;;;;;;;6.93;3.40;;;13.40;92.90;;;;;;5082511;27;20485;-60
2023/05/19 06:44:48;;;;;;;6.53;3.57;;;13.50;92.20;;;;;;5073899;28;20490;-60
2023/05/19 06:47:15;;;;;;;5.33;4.03;;;13.70;92.40;;;;;;5089763;27;20662;-60
2023/05/19 06:49:42;;;;;;;7.60;4.07;;;13.80;92.80;;;;;;5084172;28;20509;-60
2023/05/19 06:52:09;;;;;;;6.40;3.40;;;14.10;92.30;;;;;;5069574;28;21069;-60
2023/05/19 06:54:37;;;;;;;8.00;3.57;;;14.20;92.10;;;;;;5067976;27;20884;-60
2023/05/19 06:57:04;;;;;;;12.43;4.20;;;14.60;91.80;;;;;;5084442;27;20897;-60
2023/05/19 06:59:31;;;;;;;11.93;3.50;;;14.80;92.10;;;;;;5086191;28;20466;-60
2023/05/19 07:01:58;;;;;;;7.00;3.60;;;14.90;90.70;;;;;;5073294;27;20629;-60
2023/05/19 07:04:26;;;;;;;12.53;3.80;;;15.10;91.30;;;;;;5073697;27;21255;-60
2023/05/19 07:06:53;;;;;;;8.63;3.53;;;15.30;90.80;;;;;;5075226;27;21057;-60
2023/05/19 07:09:20;;;;;;;5.13;2.97;;;15.50;90.10;;;;;;5085924;27;20480;-60
2023/05/19 07:11:48;;;;;;;12.60;3.40;;;15.50;88.90;;;;;;5061618;27;20483;-60
2023/05/19 07:14:15;;;;;;;10.57;4.00;;;15.70;89.40;;;;;;5083126;27;20483;-61
2023/05/19 07:16:42;;;;;;;7.20;3.13;;;15.70;89.70;;;;;;5091110;27;20703;-60
2023/05/19 07:19:09;;;;;;;9.80;3.27;;;15.80;88.90;;;;;;5059230;28;20580;-61
2023/05/19 07:21:36;;;;;;;4.37;3.13;;;16.00;89.40;;;;;;5074305;28;20479;-61
2023/05/19 07:24:03;;;;;;;6.40;3.60;;;16.20;90.60;;;;;;5082811;27;21079;-60
2023/05/19 07:26:29;;;;;;;6.63;3.77;;;16.50;90.00;;;;;;5084497;27;20474;-61
2023/05/19 07:28:57;;;;;;;5.13;2.60;;;16.90;86.40;;;;;;5083123;27;20485;-61
2023/05/19 07:31:24;;;;;;;6.30;3.80;;;17.10;88.30;;;;;;5075884;28;20477;-61
2023/05/19 07:33:51;;;;;;;16.33;3.40;;;17.10;86.20;;;;;;5095188;27;20735;-61
2023/05/19 07:36:18;;;;;;;6.47;3.30;;;17.10;86.80;;;;;;5084396;27;20485;-61
2023/05/19 07:38:45;;;;;;;5.77;4.00;;;17.30;87.90;;;;;;5081324;27;20476;-61
2023/05/19 07:41:12;;;;;;;6.03;3.53;;;17.50;86.00;;;;;;5071078;28;20482;-60
2023/05/19 07:43:40;;;;;;;5.20;3.43;;;17.60;85.80;;;;;;5083934;27;20497;-61
2023/05/19 07:46:08;;;;;;;8.33;3.33;;;17.80;86.40;;;;;;5086386;27;20474;-61
2023/05/19 07:48:35;;;;;;;8.53;3.80;;;18.00;88.40;;;;;;5073907;28;20485;-61
2023/05/19 07:51:02;;;;;;;9.87;3.17;;;18.20;86.00;;;;;;5095752;27;20922;-61
2023/05/19 07:53:29;;;;;;;7.03;3.43;;;18.30;85.30;;;;;;5081295;28;20571;-60
2023/05/19 07:55:56;;;;;;;6.30;3.20;;;18.50;86.00;;;;;;5071241;27;20466;-61
2023/05/19 07:58:23;;;;;;;10.27;3.83;;;18.70;85.30;;;;;;5072678;27;20475;-61
2023/05/19 08:00:49;;;;;;;5.93;3.33;;;18.70;86.00;;;;;;5083018;27;20913;-61
2023/05/19 08:03:18;;;;;;;6.53;3.23;;;18.80;82.20;;;;;;5049986;27;20486;-61
2023/05/19 08:05:44;;;;;;;8.87;3.30;;;18.80;81.80;;;;;;5080659;28;20493;-61
2023/05/19 08:08:11;;;;;;;6.30;3.30;;;18.80;84.00;;;;;;5067877;28;20982;-61
2023/05/19 08:10:38;;;;;;;11.17;3.30;;;18.80;81.00;;;;;;5078624;27;20492;-61
2023/05/19 08:13:05;;;;;;;7.90;3.50;;;19.00;84.00;;;;;;5080104;27;20852;-61
2023/05/19 08:15:32;;;;;;;9.20;3.40;;;19.10;84.50;;;;;;5082001;27;20694;-61
2023/05/19 08:17:58;;;;;;;6.80;3.10;;;19.30;83.90;;;;;;5070287;27;20508;-61
2023/05/19 08:20:27;;;;;;;7.60;3.70;;;19.40;82.10;;;;;;5110784;27;20501;-61
2023/05/19 08:22:53;;;;;;;7.37;3.17;;;19.50;82.00;;;;;;5096012;27;20472;-60
2023/05/19 08:25:21;;;;;;;6.53;3.37;;;19.60;82.30;;;;;;5096470;27;20865;-61
2023/05/19 08:27:48;;;;;;;7.77;3.30;;;19.80;83.10;;;;;;5076002;28;20548;-61
2023/05/19 08:30:15;;;;;;;10.53;3.93;;;20.00;82.50;;;;;;5106918;27;20484;-61
2023/05/19 08:32:48;;;;;;;7.30;3.30;;;20.20;83.30;;;;;;5089397;28;20485;-61
2023/05/19 08:35:15;;;;;;;5.10;3.40;;;20.20;83.60;;;;;;5076066;27;20478;-61
2023/05/19 08:37:43;;;;;;;10.07;3.57;;;20.50;81.80;;;;;;5113710;27;20473;-62
2023/05/19 08:40:15;;;;;;;8.73;4.00;;;20.60;80.30;;;;;;5068317;27;20490;-61
2023/05/19 08:42:42;;;;;;;8.90;3.97;;;20.60;79.10;;;;;;5091483;27;20837;-61
2023/05/19 08:45:10;;;;;;;10.93;3.67;;;20.50;77.40;;;;;;5074755;28;20867;-61
2023/05/19 08:47:37;;;;;;;4.63;2.70;;;20.60;80.70;;;;;;5066250;28;20482;-62
2023/05/19 08:50:06;;;;;;;6.77;3.27;;;20.80;80.00;;;;;;5097211;27;20486;-62
2023/05/19 08:52:41;;;;;;;4.23;2.80;;;21.00;79.60;;;;;;5071678;28;20730;-62
2023/05/19 08:55:24;;;;;;;6.70;3.60;;;21.10;80.00;;;;;;5067086;28;20482;-62
2023/05/19 08:57:52;;;;;;;10.83;3.73;;;21.10;76.50;;;;;;5058011;28;20464;-62
2023/05/19 09:00:19;;;;;;;3.33;3.03;;;21.20;78.70;;;;;;5067096;28;20452;-62
2023/05/19 09:02:48;;;;;;;6.43;3.60;;;21.50;80.00;;;;;;5093163;27;20836;-62
2023/05/19 09:05:17;;;;;;;9.83;4.30;;;21.60;80.10;;;;;;5071727;28;21023;-62
2023/05/19 09:07:44;;;;;;;10.90;4.53;;;21.80;78.10;;;;;;5077290;27;20472;-62
2023/05/19 09:10:13;;;;;;;6.13;3.50;;;21.80;78.70;;;;;;5077644;28;20478;-62
2023/05/19 09:12:40;;;;;;;10.43;3.87;;;21.90;77.40;;;;;;5091739;27;20919;-62
2023/05/19 09:15:09;;;;;;;9.73;3.97;;;21.90;77.00;;;;;;5102047;27;20476;-62
2023/05/19 09:17:38;;;;;;;4.67;3.80;;;22.00;76.60;;;;;;5074923;28;20467;-62
2023/05/19 09:20:09;;;;;;;9.43;4.70;;;22.00;76.90;;;;;;5112407;27;20486;-62
2023/05/19 09:22:41;;;;;;;10.37;3.33;;;22.00;75.90;;;;;;5091265;28;20594;-62
2023/05/19 09:25:20;;;;;;;7.57;3.80;;;22.10;78.00;;;;;;5099716;27;20866;-62
2023/05/19 09:27:48;;;;;;;4.53;3.10;;;22.10;78.00;;;;;;5106108;27;20507;-62
2023/05/19 09:30:19;;;;;;;6.50;3.97;;;21.70;76.20;;;;;;5075480;27;20469;-62
2023/05/19 09:32:46;;;;;;;5.80;3.70;;;21.80;76.00;;;;;;5095303;27;20478;-61
2023/05/19 09:35:15;;;;;;;5.53;4.00;;;21.80;75.60;;;;;;5090675;27;21615;-62
2023/05/19 09:37:43;;;;;;;11.83;3.83;;;21.80;77.40;;;;;;5096018;27;21102;-62
2023/05/19 09:40:11;;;;;;;5.10;3.40;;;22.00;77.50;;;;;;5094760;27;20506;-62
2023/05/19 09:42:40;;;;;;;7.20;3.23;;;22.00;78.00;;;;;;5077559;27;20529;-62
2023/05/19 09:45:08;;;;;;;11.37;3.50;;;22.00;76.30;;;;;;5086274;27;21123;-62
2023/05/19 09:47:36;;;;;;;6.13;3.93;;;22.00;76.60;;;;;;5073899;28;20440;-63
2023/05/19 09:50:07;;;;;;;9.90;4.50;;;22.10;77.50;;;;;;5092736;27;20470;-62
2023/05/19 09:52:37;;;;;;;12.13;4.77;;;22.30;78.30;;;;;;5061067;28;20535;-62
2023/05/19 09:55:06;;;;;;;5.50;3.60;;;22.50;78.20;;;;;;5048068;28;20506;-62
2023/05/19 09:57:37;;;;;;;12.77;4.03;;;22.30;75.10;;;;;;5091193;27;20494;-62
2023/05/19 10:00:14;;;;;;;8.57;4.40;;;22.10;74.40;;;;;;5072674;27;20460;-62
2023/05/19 10:02:43;;;;;;;8.93;3.77;;;21.70;73.20;;;;;;5090225;28;20497;-62
2023/05/19 10:05:12;;;;;;;7.50;3.93;;;21.60;77.10;;;;;;5091829;27;20936;-63
2023/05/19 10:07:40;;;;;;;7.27;3.97;;;21.60;75.60;;;;;;5078850;28;20485;-63
2023/05/19 10:10:11;;;;;;;9.20;3.80;;;21.70;75.70;;;;;;5080355;28;20468;-62
2023/05/19 10:12:39;;;;;;;9.13;3.40;;;21.50;74.00;;;;;;5084645;28;20553;-62
2023/05/19 10:15:11;;;;;;;9.20;3.97;;;21.40;75.50;;;;;;5077896;28;21073;-62
2023/05/19 10:17:39;;;;;;;7.40;4.10;;;21.20;75.50;;;;;;5070855;28;20840;-62
2023/05/19 10:20:09;;;;;;;7.00;4.20;;;21.40;77.80;;;;;;5076976;27;21031;-62
2023/05/19 10:22:37;;;;;;;9.10;4.67;;;21.50;78.30;;;;;;5092633;28;20504;-63
2023/05/19 10:25:04;;;;;;;12.73;5.47;;;22.10;80.70;;;;;;5076926;27;20470;-63
2023/05/19 10:27:36;;;;;;;6.57;4.40;;;22.30;75.10;;;;;;5050307;28;20486;-63
2023/05/19 10:30:09;;;;;;;7.00;3.80;;;22.40;76.00;;;;;;5097305;27;20489;-62
2023/05/19 10:32:39;;;;;;;7.37;3.50;;;22.40;75.00;;;;;;5055483;27;20984;-63
2023/05/19 10:35:32;;;;;;;6.20;3.87;;;22.30;74.10;;;;;;5083901;27;20730;-63
2023/05/19 10:38:09;;;;;;;8.00;3.80;;;22.20;74.50;;;;;;5076220;28;20938;-63
2023/05/19 10:40:40;;;;;;;7.23;3.77;;;22.10;73.70;;;;;;5071322;28;20587;-63
2023/05/19 10:43:30;;;;;;;8.00;3.90;;;21.70;73.40;;;;;;5073996;28;20672;-63
2023/05/19 10:46:00;;;;;;;9.00;3.90;;;21.80;77.20;;;;;;5079350;28;20477;-62
2023/05/19 10:48:32;;;;;;;7.83;3.73;;;21.60;74.90;;;;;;5074519;28;20490;-62
2023/05/19 10:50:59;;;;;;;11.03;4.17;;;21.70;76.80;;;;;;5091552;27;21279;-62
2023/05/19 10:53:31;;;;;;;6.00;3.80;;;22.30;80.70;;;;;;5082920;27;20539;-62
2023/05/19 10:55:58;;;;;;;6.17;3.60;;;22.20;75.70;;;;;;5095051;27;20482;-63
2023/05/19 10:58:53;;;;;;;9.67;4.70;;;22.40;73.80;;;;;;5099673;27;20477;-63
2023/05/19 11:01:23;;;;;;;8.73;3.97;;;22.40;75.10;;;;;;5087730;27;20471;-63
2023/05/19 11:03:52;;;;;;;5.30;3.10;;;22.50;73.90;;;;;;5081215;27;20470;-62
2023/05/19 11:06:20;;;;;;;6.63;3.50;;;22.50;73.40;;;;;;5072872;27;20830;-63
2023/05/19 11:08:52;;;;;;;6.87;3.80;;;22.60;76.30;;;;;;5074917;27;20538;-63
2023/05/19 11:11:19;;;;;;;7.90;4.00;;;22.50;74.40;;;;;;5077406;27;20786;-63
2023/05/19 11:13:48;;;;;;;11.70;5.73;;;22.40;74.00;;;;;;5079025;27;20773;-62
2023/05/19 11:16:17;;;;;;;6.13;3.47;;;22.50;73.10;;;;;;5067548;27;20464;-63
2023/05/19 11:18:49;;;;;;;7.63;3.13;;;22.70;75.90;;;;;;5046017;27;20469;-62
2023/05/19 11:21:16;;;;;;;7.47;3.33;;;22.60;74.60;;;;;;5078282;27;20502;-63
2023/05/19 11:23:43;;;;;;;8.43;3.90;;;22.80;74.00;;;;;;5067630;27;20451;-63
2023/05/19 11:26:10;;;;;;;8.00;3.50;;;22.80;76.30;;;;;;5088671;27;20482;-63
2023/05/19 11:28:37;;;;;;;4.40;3.30;;;23.10;75.30;;;;;;5069596;27;20448;-63
2023/05/19 11:31:09;;;;;;;9.00;3.50;;;23.10;74.70;;;;;;5067822;27;20461;-63
2023/05/19 11:33:36;;;;;;;5.70;3.30;;;23.00;73.70;;;;;;5090968;27;20854;-63
2023/05/19 11:36:06;;;;;;;4.80;3.40;;;22.90;71.90;;;;;;5032627;27;20876;-63
2023/05/19 11:38:34;;;;;;;8.47;4.13;;;23.00;73.60;;;;;;5085579;27;20470;-63
2023/05/19 11:41:01;;;;;;;6.37;3.30;;;23.00;76.20;;;;;;5070987;27;20525;-63
2023/05/19 11:43:27;;;;;;;4.47;3.33;;;22.60;71.20;;;;;;5078436;27;21207;-63
2023/05/19 11:45:55;;;;;;;4.63;3.10;;;22.40;70.80;;;;;;5062609;28;20493;-63
2023/05/19 11:48:22;;;;;;;8.27;3.40;;;22.20;70.10;;;;;;5075238;27;20443;-63
2023/05/19 11:50:49;;;;;;;9.97;3.33;;;21.80;71.70;;;;;;5079605;28;20881;-63
2023/05/19 11:53:18;;;;;;;7.30;3.40;;;21.70;74.30;;;;;;5079460;27;20565;-63
2023/05/19 11:55:46;;;;;;;6.83;3.53;;;21.60;72.70;;;;;;5054511;27;21055;-63
2023/05/19 11:58:13;;;;;;;8.90;2.90;;;21.90;76.70;;;;;;5081547;28;20579;-63
2023/05/19 12:00:41;;;;;;;6.50;3.00;;;21.90;75.60;;;;;;5086170;28;20489;-63
2023/05/19 12:03:08;;;;;;;5.50;2.97;;;22.10;73.20;;;;;;5080877;27;20478;-63
2023/05/19 12:05:38;;;;;;;5.27;3.23;;;22.10;73.90;;;;;;5077957;27;20469;-63
2023/05/19 12:08:05;;;;;;;4.53;2.67;;;22.10;72.00;;;;;;5086952;27;20876;-63
2023/05/19 12:10:34;;;;;;;3.37;2.40;;;22.20;75.00;;;;;;5090885;28;20951;-63
2023/05/19 12:13:02;;;;;;;6.40;2.80;;;22.20;75.00;;;;;;5071404;28;20474;-62
2023/05/19 12:15:29;;;;;;;6.23;3.30;;;22.10;70.50;;;;;;5082781;27;20483;-63
2023/05/19 12:17:58;;;;;;;5.67;3.10;;;21.90;70.30;;;;;;5064800;28;20502;-63
2023/05/19 12:20:26;;;;;;;5.60;2.77;;;21.90;73.60;;;;;;5072305;27;21282;-63
2023/05/19 12:22:54;;;;;;;8.40;3.53;;;21.90;73.70;;;;;;5097538;27;20485;-63
2023/05/19 12:25:22;;;;;;;5.17;2.80;;;22.10;70.40;;;;;;5077293;27;20875;-62
2023/05/19 12:27:51;;;;;;;5.20;2.40;;;22.10;71.70;;;;;;5061482;28;20678;-63
2023/05/19 12:30:18;;;;;;;9.27;4.00;;;22.20;70.30;;;;;;5063014;28;20478;-62
2023/05/19 12:32:47;;;;;;;5.23;2.90;;;22.10;68.70;;;;;;5094947;27;20785;-63
2023/05/19 12:35:15;;;;;;;7.47;2.93;;;22.00;70.70;;;;;;5082429;28;20823;-63
2023/05/19 12:37:42;;;;;;;6.23;3.27;;;21.90;70.50;;;;;;5079594;28;21008;-62
2023/05/19 12:40:15;;;;;;;6.20;2.80;;;21.80;70.30;;;;;;5076770;28;20593;-63
2023/05/19 12:42:45;;;;;;;4.30;2.63;;;21.80;73.20;;;;;;5053415;28;20556;-63
2023/05/19 12:45:14;;;;;;;5.73;2.30;;;21.60;72.20;;;;;;5090946;28;20477;-62
2023/05/19 12:47:40;;;;;;;11.33;3.20;;;21.60;71.30;;;;;;5085920;28;20478;-62
2023/05/19 12:50:09;;;;;;;5.43;2.50;;;21.60;72.50;;;;;;5069400;28;21163;-63
2023/05/19 12:52:45;;;;;;;8.00;2.47;;;21.70;74.20;;;;;;5087911;27;20489;-63
2023/05/19 12:55:13;;;;;;;6.10;2.90;;;21.80;73.70;;;;;;5082589;28;20467;-63
2023/05/19 12:57:42;;;;;;;5.10;3.07;;;21.70;71.90;;;;;;5091117;28;20519;-62